Time;durP1;ratioP1;P1;durP2;ratioP2;P2;SDS_P1;SDS_P2;PMS_P1;PMS_P2;Temp;Humidity;BMP_temperature;BMP_pressure;BME280_temperature;BME280_humidity;BME280_pressure;Samples;Min_cycle;Max_cycle;Signal;HPM_P1;HPM_P2
2021/07/27 00:00:09;;;;;;;33.50;24.55;;;;;;;;;;1494635;39;20430;-81
2021/07/27 00:01:12;;;;;;;35.85;24.38;;;;;;;;;;1485576;40;20510;-81
2021/07/27 00:02:13;;;;;;;33.88;23.67;;;;;;;;;;1485519;39;20426;-81
2021/07/27 00:03:15;;;;;;;31.92;24.42;;;;;;;;;;1490056;39;20508;-81
2021/07/27 00:04:17;;;;;;;36.70;25.20;;;;;;;;;;1490588;39;20413;-81
2021/07/27 00:05:18;;;;;;;33.53;23.90;;;;;;;;;;1490200;39;21210;-81
2021/07/27 00:06:20;;;;;;;34.92;23.98;;;;;;;;;;1490443;39;20522;-81
2021/07/27 00:07:21;;;;;;;34.63;24.55;;;;;;;;;;1481371;40;20595;-81
2021/07/27 00:08:24;;;;;;;33.65;25.25;;;;;;;;;;1477576;40;20418;-81
2021/07/27 00:09:25;;;;;;;33.00;24.85;;;;;;;;;;1481017;40;20831;-81
2021/07/27 00:10:29;;;;;;;32.58;24.73;;;;;;;;;;1485640;39;20787;-81
2021/07/27 00:11:31;;;;;;;34.47;25.83;;;;;;;;;;1489842;39;20818;-81
2021/07/27 00:12:33;;;;;;;36.50;24.73;;;;;;;;;;1485883;40;20440;-81
2021/07/27 00:13:35;;;;;;;32.42;24.52;;;;;;;;;;1485832;39;20415;-81
2021/07/27 00:14:37;;;;;;;34.22;25.83;;;;;;;;;;1485917;40;20436;-81
2021/07/27 00:15:39;;;;;;;34.75;25.23;;;;;;;;;;1485863;39;20430;-81
2021/07/27 00:16:41;;;;;;;37.30;26.52;;;;;;;;;;1485892;40;20397;-81
2021/07/27 00:17:42;;;;;;;39.08;24.85;;;;;;;;;;1489173;39;20799;-82
2021/07/27 00:18:44;;;;;;;34.75;25.65;;;;;;;;;;1491175;40;20407;-81
2021/07/27 00:19:45;;;;;;;34.40;25.85;;;;;;;;;;1487360;40;20389;-82
2021/07/27 00:20:48;;;;;;;36.63;24.63;;;;;;;;;;1487643;40;20397;-82
2021/07/27 00:21:50;;;;;;;37.20;26.00;;;;;;;;;;1487642;40;20408;-81
2021/07/27 00:22:51;;;;;;;32.03;24.90;;;;;;;;;;1488099;40;20408;-81
2021/07/27 00:23:53;;;;;;;39.63;27.23;;;;;;;;;;1485889;40;20396;-81
2021/07/27 00:24:57;;;;;;;39.97;26.02;;;;;;;;;;1485397;40;20389;-81
2021/07/27 00:25:59;;;;;;;35.53;26.15;;;;;;;;;;1489819;39;20519;-81
2021/07/27 00:27:00;;;;;;;35.20;24.48;;;;;;;;;;1492989;39;20471;-81
2021/07/27 00:28:02;;;;;;;36.88;26.40;;;;;;;;;;1491746;39;20425;-81
2021/07/27 00:29:04;;;;;;;36.75;26.15;;;;;;;;;;1491214;39;21001;-81
2021/07/27 00:30:06;;;;;;;39.60;27.70;;;;;;;;;;1482019;40;20452;-80
2021/07/27 00:31:18;;;;;;;36.78;25.73;;;;;;;;;;1481686;39;20782;-81
2021/07/27 00:32:19;;;;;;;35.00;25.57;;;;;;;;;;1486125;40;20415;-81
2021/07/27 00:33:21;;;;;;;35.55;26.55;;;;;;;;;;1485896;39;20414;-81
2021/07/27 00:34:23;;;;;;;38.95;25.92;;;;;;;;;;1486143;40;20477;-81
2021/07/27 00:35:25;;;;;;;41.77;26.80;;;;;;;;;;1486073;39;20403;-81
2021/07/27 00:36:27;;;;;;;39.17;25.55;;;;;;;;;;1490099;39;20696;-81
2021/07/27 00:37:31;;;;;;;35.60;24.83;;;;;;;;;;1490665;39;20460;-81
2021/07/27 00:38:32;;;;;;;38.38;25.50;;;;;;;;;;1485736;40;20426;-81
2021/07/27 00:39:34;;;;;;;36.13;25.63;;;;;;;;;;1485844;39;20538;-81
2021/07/27 00:40:37;;;;;;;41.55;27.33;;;;;;;;;;1485745;40;20437;-82
2021/07/27 00:41:39;;;;;;;41.03;28.75;;;;;;;;;;1481581;40;20409;-81
2021/07/27 00:42:45;;;;;;;37.83;27.35;;;;;;;;;;1485979;39;20998;-81
2021/07/27 00:43:47;;;;;;;36.53;27.00;;;;;;;;;;1489809;39;20408;-82
2021/07/27 00:44:49;;;;;;;41.47;29.38;;;;;;;;;;1485678;40;20429;-82
2021/07/27 00:45:50;;;;;;;38.55;27.33;;;;;;;;;;1485919;39;20454;-81
2021/07/27 00:46:52;;;;;;;45.05;29.60;;;;;;;;;;1485332;40;20426;-81
2021/07/27 00:47:53;;;;;;;43.45;30.13;;;;;;;;;;1481040;40;20534;-81
2021/07/27 00:48:55;;;;;;;43.40;29.77;;;;;;;;;;1485532;39;20712;-81
2021/07/27 00:49:57;;;;;;;43.78;30.63;;;;;;;;;;1481423;40;20490;-81
2021/07/27 00:50:59;;;;;;;46.72;31.58;;;;;;;;;;1476981;40;20509;-81
2021/07/27 00:52:01;;;;;;;45.42;30.77;;;;;;;;;;1485506;39;20894;-82
2021/07/27 00:53:04;;;;;;;48.88;32.58;;;;;;;;;;1485287;40;21168;-81
2021/07/27 00:54:07;;;;;;;54.28;34.25;;;;;;;;;;1485393;40;20580;-81
2021/07/27 00:55:09;;;;;;;51.85;33.10;;;;;;;;;;1485448;39;20429;-81
2021/07/27 00:56:11;;;;;;;49.78;32.22;;;;;;;;;;1490280;39;20401;-81
2021/07/27 00:57:12;;;;;;;48.15;32.88;;;;;;;;;;1490187;39;20461;-81
2021/07/27 00:58:14;;;;;;;51.17;32.78;;;;;;;;;;1485482;39;20708;-81
2021/07/27 00:59:15;;;;;;;55.92;33.75;;;;;;;;;;1481204;40;20474;-81
2021/07/27 01:00:18;;;;;;;49.00;33.20;;;;;;;;;;1485599;39;20506;-81
2021/07/27 01:01:19;;;;;;;51.95;34.90;;;;;;;;;;1485513;40;20451;-81
2021/07/27 01:02:21;;;;;;;56.60;36.05;;;;;;;;;;1481620;40;20491;-81
2021/07/27 01:03:23;;;;;;;47.30;32.42;;;;;;;;;;1476954;40;20804;-81
2021/07/27 01:04:25;;;;;;;50.00;33.55;;;;;;;;;;1481512;39;20415;-81
2021/07/27 01:05:27;;;;;;;53.38;34.08;;;;;;;;;;1489956;39;20818;-79
2021/07/27 01:06:28;;;;;;;48.88;34.15;;;;;;;;;;1485472;40;20471;-81
2021/07/27 01:07:30;;;;;;;47.83;34.15;;;;;;;;;;1485445;39;20410;-81
2021/07/27 01:08:35;;;;;;;48.72;33.33;;;;;;;;;;1490263;39;20468;-81
2021/07/27 01:09:37;;;;;;;52.33;35.20;;;;;;;;;;1485276;40;20415;-81
2021/07/27 01:10:39;;;;;;;54.35;35.38;;;;;;;;;;1485696;39;20410;-80
2021/07/27 01:11:42;;;;;;;52.67;34.90;;;;;;;;;;1485572;40;20468;-81
2021/07/27 01:12:48;;;;;;;52.80;34.03;;;;;;;;;;1485898;39;20407;-82
2021/07/27 01:13:50;;;;;;;52.50;34.65;;;;;;;;;;1489757;39;20409;-82
2021/07/27 01:14:51;;;;;;;49.35;34.58;;;;;;;;;;1481387;40;20415;-82
2021/07/27 01:15:56;;;;;;;50.17;35.25;;;;;;;;;;1481425;39;20404;-80
2021/07/27 01:16:58;;;;;;;57.77;35.90;;;;;;;;;;1485335;40;20407;-82
2021/07/27 01:18:06;;;;;;;55.47;36.22;;;;;;;;;;1481444;40;20812;-82
2021/07/27 01:37:42;;;;;;;62.47;39.72;;;;;;;;;;1488816;39;20512;-82
2021/07/27 01:39:19;;;;;;;67.00;39.38;;;;;;;;;;1485529;40;20419;-81
2021/07/27 01:40:07;;;;;;;57.13;38.28;;;;;;;;;;1487869;39;20459;-82
2021/07/27 01:42:14;;;;;;;60.83;38.85;;;;;;;;;;1490274;39;21378;-81
2021/07/27 01:43:20;;;;;;;59.30;38.40;;;;;;;;;;1489954;39;20413;-82
2021/07/27 01:44:21;;;;;;;59.97;38.15;;;;;;;;;;1485265;40;20513;-81
2021/07/27 01:45:23;;;;;;;58.08;38.47;;;;;;;;;;1486325;39;20474;-82
2021/07/27 01:46:25;;;;;;;61.50;39.58;;;;;;;;;;1485600;40;20866;-81
2021/07/27 01:47:27;;;;;;;61.20;40.15;;;;;;;;;;1485313;39;20492;-81
2021/07/27 01:48:31;;;;;;;70.22;41.75;;;;;;;;;;1476836;40;20748;-81
2021/07/27 01:49:32;;;;;;;68.55;40.33;;;;;;;;;;1481712;39;20456;-81
2021/07/27 01:50:34;;;;;;;60.13;39.63;;;;;;;;;;1485584;40;20443;-81
2021/07/27 01:51:43;;;;;;;59.00;39.05;;;;;;;;;;1481344;40;20404;-82
2021/07/27 01:52:47;;;;;;;60.65;39.00;;;;;;;;;;1486259;39;20579;-81
2021/07/27 01:53:55;;;;;;;61.73;40.80;;;;;;;;;;1480938;40;20793;-82
2021/07/27 01:54:57;;;;;;;63.38;40.30;;;;;;;;;;1482392;39;20401;-82
2021/07/27 01:55:59;;;;;;;59.58;39.35;;;;;;;;;;1490216;39;21109;-82
2021/07/27 01:57:00;;;;;;;69.78;41.50;;;;;;;;;;1490378;39;20405;-81
2021/07/27 01:58:02;;;;;;;62.95;40.53;;;;;;;;;;1490348;39;20432;-82
2021/07/27 01:59:04;;;;;;;66.15;42.28;;;;;;;;;;1489898;39;20558;-81
2021/07/27 02:00:08;;;;;;;66.38;40.55;;;;;;;;;;1490003;39;20440;-82
2021/07/27 02:01:10;;;;;;;63.47;40.88;;;;;;;;;;1490288;39;20409;-81
2021/07/27 02:02:12;;;;;;;63.83;40.17;;;;;;;;;;1490438;39;20406;-82
2021/07/27 02:03:15;;;;;;;65.15;41.22;;;;;;;;;;1489941;39;20413;-81
2021/07/27 02:04:17;;;;;;;68.50;41.60;;;;;;;;;;1485151;40;20411;-80
2021/07/27 02:05:19;;;;;;;73.25;41.53;;;;;;;;;;1481554;40;20510;-81
2021/07/27 02:06:20;;;;;;;67.22;41.50;;;;;;;;;;1485694;39;20446;-84
2021/07/27 02:07:22;;;;;;;64.63;41.97;;;;;;;;;;1485807;40;20532;-81
2021/07/27 02:08:24;;;;;;;69.38;42.50;;;;;;;;;;1485615;39;20429;-82
2021/07/27 02:09:32;;;;;;;68.35;43.05;;;;;;;;;;1490049;39;20433;-81
2021/07/27 02:10:33;;;;;;;68.50;41.90;;;;;;;;;;1490009;39;20441;-81
2021/07/27 02:11:41;;;;;;;72.55;43.05;;;;;;;;;;1485823;40;20399;-82
2021/07/27 02:12:59;;;;;;;67.25;43.28;;;;;;;;;;1486273;39;20399;-82
2021/07/27 02:14:02;;;;;;;67.32;42.35;;;;;;;;;;1485631;40;20398;-81
2021/07/27 02:15:05;;;;;;;63.85;41.55;;;;;;;;;;1487282;39;20407;-82
2021/07/27 02:16:07;;;;;;;66.35;42.63;;;;;;;;;;1490182;39;20405;-81
2021/07/27 02:17:08;;;;;;;63.30;41.10;;;;;;;;;;1485479;40;20411;-81
2021/07/27 02:18:10;;;;;;;70.88;42.88;;;;;;;;;;1485749;39;20411;-82
2021/07/27 02:19:12;;;;;;;63.78;41.05;;;;;;;;;;1490140;39;20442;-81
2021/07/27 02:20:13;;;;;;;60.53;39.55;;;;;;;;;;1485254;40;20467;-82
2021/07/27 02:21:15;;;;;;;63.25;40.13;;;;;;;;;;1485064;39;20835;-82
2021/07/27 02:22:17;;;;;;;66.20;42.50;;;;;;;;;;1490244;39;20401;-81
2021/07/27 02:23:20;;;;;;;61.63;40.88;;;;;;;;;;1485337;40;20491;-81
2021/07/27 02:24:31;;;;;;;66.07;41.95;;;;;;;;;;1485870;39;20473;-81
2021/07/27 02:25:32;;;;;;;64.78;41.63;;;;;;;;;;1489721;39;20797;-81
2021/07/27 02:26:34;;;;;;;63.63;42.35;;;;;;;;;;1489900;39;20409;-81
2021/07/27 02:27:36;;;;;;;68.63;42.40;;;;;;;;;;1485102;40;20391;-81
2021/07/27 02:28:38;;;;;;;69.00;43.55;;;;;;;;;;1485244;39;20861;-82
2021/07/27 02:29:40;;;;;;;65.97;42.15;;;;;;;;;;1481394;40;20412;-82
2021/07/27 02:30:47;;;;;;;67.10;41.65;;;;;;;;;;1483922;39;20507;-82
2021/07/27 02:31:49;;;;;;;62.88;42.15;;;;;;;;;;1489529;39;20464;-82
2021/07/27 02:32:50;;;;;;;66.60;41.05;;;;;;;;;;1486171;39;20617;-82
2021/07/27 02:33:52;;;;;;;59.90;39.97;;;;;;;;;;1486253;39;20500;-81
2021/07/27 02:34:53;;;;;;;60.72;39.42;;;;;;;;;;1485928;39;20425;-81
2021/07/27 02:35:56;;;;;;;54.80;37.28;;;;;;;;;;1490322;39;20393;-82
2021/07/27 02:36:59;;;;;;;50.08;33.78;;;;;;;;;;1490010;39;20397;-81
2021/07/27 02:38:00;;;;;;;52.10;33.35;;;;;;;;;;1490645;39;20497;-81
2021/07/27 02:39:06;;;;;;;49.38;33.00;;;;;;;;;;1486182;40;20414;-81
2021/07/27 02:40:11;;;;;;;47.97;31.98;;;;;;;;;;1487082;39;20423;-81
2021/07/27 02:41:13;;;;;;;41.65;31.73;;;;;;;;;;1495099;39;20517;-81
2021/07/27 02:42:14;;;;;;;44.00;31.13;;;;;;;;;;1486127;40;20496;-81
2021/07/27 02:43:16;;;;;;;45.78;31.48;;;;;;;;;;1486389;39;20423;-82
2021/07/27 02:44:17;;;;;;;43.70;30.58;;;;;;;;;;1490463;39;20801;-81
2021/07/27 02:45:25;;;;;;;44.35;30.45;;;;;;;;;;1486263;39;21054;-81
2021/07/27 02:46:27;;;;;;;43.08;30.42;;;;;;;;;;1491012;39;20470;-81
2021/07/27 02:47:29;;;;;;;48.47;31.40;;;;;;;;;;1495036;39;20511;-81
2021/07/27 02:48:34;;;;;;;43.17;31.13;;;;;;;;;;1494858;39;20411;-81
2021/07/27 02:49:36;;;;;;;48.73;30.87;;;;;;;;;;1490311;39;20986;-81
2021/07/27 02:50:39;;;;;;;48.03;30.17;;;;;;;;;;1486448;39;20466;-81
2021/07/27 02:51:49;;;;;;;43.08;30.73;;;;;;;;;;1486198;39;20526;-81
2021/07/27 02:52:50;;;;;;;47.20;30.73;;;;;;;;;;1490777;39;20404;-81
2021/07/27 02:53:52;;;;;;;41.03;29.50;;;;;;;;;;1492984;39;20421;-81
2021/07/27 02:54:53;;;;;;;50.70;31.60;;;;;;;;;;1494509;39;20445;-82
2021/07/27 02:55:56;;;;;;;42.55;30.73;;;;;;;;;;1499068;39;20537;-82
2021/07/27 02:56:59;;;;;;;44.30;31.23;;;;;;;;;;1500215;39;20415;-82
2021/07/27 02:58:01;;;;;;;44.88;30.83;;;;;;;;;;1500117;39;20496;-80
2021/07/27 02:59:02;;;;;;;46.55;32.58;;;;;;;;;;1495866;39;20474;-81
2021/07/27 03:00:05;;;;;;;45.70;31.30;;;;;;;;;;1494194;39;20865;-81
2021/07/27 03:01:07;;;;;;;44.23;30.97;;;;;;;;;;1489792;40;20496;-82
2021/07/27 03:02:09;;;;;;;49.08;31.65;;;;;;;;;;1490089;39;20414;-83
2021/07/27 03:03:11;;;;;;;45.40;31.30;;;;;;;;;;1493435;39;20429;-80
2021/07/27 03:04:13;;;;;;;46.67;31.20;;;;;;;;;;1489597;39;20456;-81
2021/07/27 03:05:16;;;;;;;44.88;32.50;;;;;;;;;;1487929;39;20466;-81
2021/07/27 03:06:19;;;;;;;47.13;32.47;;;;;;;;;;1483258;40;20519;-81
2021/07/27 03:07:21;;;;;;;46.33;31.65;;;;;;;;;;1482952;39;20408;-81
2021/07/27 03:08:33;;;;;;;45.97;31.80;;;;;;;;;;1490659;39;20420;-81
2021/07/27 03:10:16;;;;;;;48.08;32.80;;;;;;;;;;1495175;39;21039;-81
2021/07/27 03:10:59;;;;;;;45.90;32.00;;;;;;;;;;1495004;39;20500;-81
2021/07/27 03:12:04;;;;;;;45.37;32.23;;;;;;;;;;1495333;39;20407;-81
2021/07/27 03:13:06;;;;;;;45.38;32.90;;;;;;;;;;1490234;39;20415;-81
2021/07/27 03:14:08;;;;;;;43.08;30.42;;;;;;;;;;1490259;39;20502;-81
2021/07/27 03:15:11;;;;;;;44.50;31.33;;;;;;;;;;1494898;39;20411;-81
2021/07/27 03:16:17;;;;;;;46.50;31.80;;;;;;;;;;1494835;39;20525;-81
2021/07/27 03:17:19;;;;;;;46.00;30.63;;;;;;;;;;1490606;39;20405;-81
2021/07/27 03:18:21;;;;;;;45.05;31.55;;;;;;;;;;1490568;39;20409;-81
2021/07/27 03:19:22;;;;;;;41.85;30.10;;;;;;;;;;1490416;39;20779;-81
2021/07/27 03:20:27;;;;;;;43.42;31.15;;;;;;;;;;1489860;39;20461;-81
2021/07/27 03:21:29;;;;;;;44.63;30.88;;;;;;;;;;1495010;39;20388;-81
2021/07/27 03:22:30;;;;;;;39.67;28.38;;;;;;;;;;1490307;39;20779;-81
2021/07/27 03:23:32;;;;;;;45.05;30.60;;;;;;;;;;1490017;39;21021;-81
2021/07/27 03:24:33;;;;;;;41.22;31.17;;;;;;;;;;1494948;39;20407;-81
2021/07/27 03:25:36;;;;;;;42.08;29.17;;;;;;;;;;1489823;39;20412;-81
2021/07/27 03:26:38;;;;;;;39.15;29.13;;;;;;;;;;1490411;39;20478;-81
2021/07/27 03:27:39;;;;;;;40.30;30.38;;;;;;;;;;1494859;39;20813;-81
2021/07/27 03:28:41;;;;;;;41.05;30.27;;;;;;;;;;1494599;39;21102;-82
2021/07/27 03:29:42;;;;;;;45.85;29.58;;;;;;;;;;1490211;39;20423;-81
2021/07/27 03:30:44;;;;;;;38.75;28.63;;;;;;;;;;1489986;39;20445;-81
2021/07/27 03:31:46;;;;;;;45.05;30.85;;;;;;;;;;1496203;39;20430;-81
2021/07/27 03:32:49;;;;;;;43.65;29.60;;;;;;;;;;1491236;39;20444;-81
2021/07/27 03:33:50;;;;;;;40.97;28.98;;;;;;;;;;1487419;39;20956;-81
2021/07/27 03:34:52;;;;;;;39.60;29.58;;;;;;;;;;1486327;39;20915;-82
2021/07/27 03:35:53;;;;;;;42.22;29.50;;;;;;;;;;1490107;39;20449;-81
2021/07/27 03:36:55;;;;;;;40.30;29.50;;;;;;;;;;1489999;39;20445;-81
2021/07/27 03:37:56;;;;;;;41.40;30.13;;;;;;;;;;1482049;40;20530;-81
2021/07/27 03:38:58;;;;;;;46.38;29.80;;;;;;;;;;1486305;39;20407;-82
2021/07/27 03:39:59;;;;;;;43.47;30.45;;;;;;;;;;1494669;39;20458;-82
2021/07/27 03:41:05;;;;;;;39.72;29.33;;;;;;;;;;1494814;39;20672;-81
2021/07/27 03:42:09;;;;;;;40.90;28.13;;;;;;;;;;1494872;39;20896;-82
2021/07/27 03:43:10;;;;;;;37.58;28.20;;;;;;;;;;1495002;39;20484;-81
2021/07/27 03:44:15;;;;;;;39.35;30.02;;;;;;;;;;1489984;39;21211;-82
2021/07/27 03:45:17;;;;;;;39.22;30.10;;;;;;;;;;1485861;39;20442;-81
2021/07/27 03:46:18;;;;;;;41.33;30.17;;;;;;;;;;1485914;39;20462;-81
2021/07/27 03:47:20;;;;;;;46.13;31.38;;;;;;;;;;1490116;39;20658;-81
2021/07/27 03:48:22;;;;;;;41.97;30.35;;;;;;;;;;1494888;39;20553;-81
2021/07/27 03:49:23;;;;;;;45.10;31.33;;;;;;;;;;1494650;39;21164;-81
2021/07/27 03:50:25;;;;;;;42.60;31.48;;;;;;;;;;1489454;39;20404;-81
2021/07/27 03:51:27;;;;;;;45.20;31.10;;;;;;;;;;1485601;39;20536;-81
2021/07/27 03:52:28;;;;;;;43.75;31.58;;;;;;;;;;1486000;39;20410;-81
2021/07/27 03:53:30;;;;;;;44.38;32.45;;;;;;;;;;1490163;39;20420;-81
2021/07/27 03:54:33;;;;;;;42.13;32.67;;;;;;;;;;1489770;39;20563;-81
2021/07/27 03:55:34;;;;;;;44.45;31.95;;;;;;;;;;1490227;39;20789;-82
2021/07/27 03:56:39;;;;;;;46.42;32.25;;;;;;;;;;1490357;39;20406;-81
2021/07/27 03:57:41;;;;;;;44.83;31.08;;;;;;;;;;1490274;39;20935;-81
2021/07/27 03:58:45;;;;;;;50.38;33.42;;;;;;;;;;1485568;40;20972;-81
2021/07/27 03:59:47;;;;;;;47.33;33.90;;;;;;;;;;1482005;39;20416;-81
2021/07/27 04:00:49;;;;;;;43.30;30.92;;;;;;;;;;1490287;39;20404;-82
2021/07/27 04:01:50;;;;;;;43.97;33.63;;;;;;;;;;1494881;39;20466;-82
2021/07/27 04:02:57;;;;;;;43.00;32.60;;;;;;;;;;1489672;39;20834;-81
2021/07/27 04:03:58;;;;;;;42.45;32.65;;;;;;;;;;1486309;39;20383;-81
2021/07/27 04:05:06;;;;;;;48.22;33.13;;;;;;;;;;1485609;39;20395;-81
2021/07/27 04:06:08;;;;;;;42.42;32.58;;;;;;;;;;1490381;39;20456;-81
2021/07/27 04:07:10;;;;;;;44.78;32.80;;;;;;;;;;1490164;39;20449;-81
2021/07/27 04:08:14;;;;;;;36.97;29.17;;;;;;;;;;1490174;39;20762;-81
2021/07/27 04:09:16;;;;;;;38.83;29.50;;;;;;;;;;1489798;39;20461;-81
2021/07/27 04:10:17;;;;;;;36.47;28.10;;;;;;;;;;1485895;39;20477;-81
2021/07/27 04:11:19;;;;;;;33.55;28.73;;;;;;;;;;1490224;39;20408;-81
2021/07/27 04:12:20;;;;;;;35.47;27.98;;;;;;;;;;1494875;39;20783;-81
2021/07/27 04:13:22;;;;;;;38.72;27.83;;;;;;;;;;1494717;39;20828;-81
2021/07/27 04:14:24;;;;;;;36.92;27.00;;;;;;;;;;1486112;40;20411;-81
2021/07/27 04:15:25;;;;;;;35.05;27.02;;;;;;;;;;1485709;39;20812;-81
2021/07/27 04:16:27;;;;;;;32.33;25.23;;;;;;;;;;1494422;39;20979;-81
2021/07/27 04:17:29;;;;;;;30.17;24.48;;;;;;;;;;1495457;39;20436;-81
2021/07/27 04:18:31;;;;;;;32.70;24.85;;;;;;;;;;1490466;39;20724;-81
2021/07/27 04:19:33;;;;;;;31.83;25.20;;;;;;;;;;1486343;39;20537;-81
2021/07/27 04:20:35;;;;;;;26.98;23.55;;;;;;;;;;1490360;39;20491;-81
2021/07/27 04:21:36;;;;;;;29.70;23.58;;;;;;;;;;1495147;39;20866;-81
2021/07/27 04:22:38;;;;;;;32.45;23.92;;;;;;;;;;1494420;39;20398;-81
2021/07/27 04:23:39;;;;;;;28.60;25.45;;;;;;;;;;1495098;39;21107;-81
2021/07/27 04:24:41;;;;;;;30.85;24.52;;;;;;;;;;1486222;40;20485;-81
2021/07/27 04:25:46;;;;;;;32.20;25.00;;;;;;;;;;1486032;39;20496;-81
2021/07/27 04:26:47;;;;;;;28.13;23.35;;;;;;;;;;1495217;39;20442;-81
2021/07/27 04:27:50;;;;;;;31.70;23.92;;;;;;;;;;1494835;39;20441;-81
2021/07/27 04:28:51;;;;;;;31.13;24.10;;;;;;;;;;1495049;39;20516;-82
2021/07/27 04:29:53;;;;;;;27.80;22.98;;;;;;;;;;1489896;39;20523;-81
2021/07/27 04:30:54;;;;;;;28.73;22.88;;;;;;;;;;1490473;39;20413;-81
2021/07/27 04:31:56;;;;;;;26.52;23.27;;;;;;;;;;1490290;39;20788;-81
2021/07/27 04:32:57;;;;;;;29.70;23.45;;;;;;;;;;1481731;40;20509;-81
2021/07/27 04:33:59;;;;;;;29.55;23.67;;;;;;;;;;1485891;39;20905;-81
2021/07/27 04:35:00;;;;;;;32.08;22.73;;;;;;;;;;1495019;39;20396;-81
2021/07/27 04:36:02;;;;;;;30.52;23.83;;;;;;;;;;1489751;39;20401;-81
2021/07/27 04:37:04;;;;;;;30.02;22.80;;;;;;;;;;1486090;39;20897;-81
2021/07/27 04:38:06;;;;;;;28.08;22.50;;;;;;;;;;1489853;39;20448;-81
2021/07/27 04:39:07;;;;;;;32.08;23.67;;;;;;;;;;1490060;39;21067;-81
2021/07/27 04:40:09;;;;;;;33.05;23.42;;;;;;;;;;1485634;39;20472;-81
2021/07/27 04:41:11;;;;;;;26.65;22.92;;;;;;;;;;1489894;39;20460;-81
2021/07/27 04:42:13;;;;;;;29.95;23.40;;;;;;;;;;1495263;39;20500;-81
2021/07/27 04:43:14;;;;;;;29.05;21.98;;;;;;;;;;1486467;40;20419;-81
2021/07/27 04:44:16;;;;;;;30.88;23.13;;;;;;;;;;1482114;39;20412;-81
2021/07/27 04:45:18;;;;;;;31.80;23.50;;;;;;;;;;1485949;39;21224;-81
2021/07/27 04:46:19;;;;;;;28.90;22.92;;;;;;;;;;1485911;39;20802;-81
2021/07/27 04:47:22;;;;;;;30.27;23.20;;;;;;;;;;1490518;39;20393;-83
2021/07/27 04:48:24;;;;;;;29.17;23.65;;;;;;;;;;1489653;39;20405;-82
2021/07/27 04:49:26;;;;;;;30.40;22.90;;;;;;;;;;1485727;39;20804;-81
2021/07/27 04:50:27;;;;;;;29.77;21.73;;;;;;;;;;1489990;39;20471;-83
2021/07/27 04:51:29;;;;;;;30.25;23.45;;;;;;;;;;1490267;39;20464;-82
2021/07/27 04:52:31;;;;;;;29.55;22.13;;;;;;;;;;1485888;39;20415;-83
2021/07/27 04:53:36;;;;;;;28.38;22.88;;;;;;;;;;1485553;39;20422;-82
2021/07/27 04:54:50;;;;;;;28.00;21.23;;;;;;;;;;1485873;39;20429;-82
2021/07/27 04:55:59;;;;;;;32.80;22.70;;;;;;;;;;1482511;40;20462;-83
2021/07/27 04:57:18;;;;;;;29.10;22.13;;;;;;;;;;1486150;39;20384;-82
2021/07/27 04:58:19;;;;;;;28.20;21.67;;;;;;;;;;1490105;39;20409;-82
2021/07/27 04:59:21;;;;;;;30.67;22.05;;;;;;;;;;1490315;39;20457;-82
2021/07/27 05:00:23;;;;;;;28.67;22.37;;;;;;;;;;1494991;39;20407;-82
2021/07/27 05:01:25;;;;;;;27.98;22.65;;;;;;;;;;1494570;39;20411;-82
2021/07/27 05:02:27;;;;;;;27.63;22.20;;;;;;;;;;1494506;39;20487;-82
2021/07/27 05:03:29;;;;;;;26.42;21.92;;;;;;;;;;1489746;39;20409;-82
2021/07/27 05:04:35;;;;;;;27.23;21.73;;;;;;;;;;1490514;39;20530;-82
2021/07/27 05:05:36;;;;;;;29.85;21.98;;;;;;;;;;1494613;39;20419;-82
2021/07/27 05:06:38;;;;;;;26.33;21.88;;;;;;;;;;1487432;39;20406;-82
2021/07/27 05:07:40;;;;;;;27.90;21.80;;;;;;;;;;1481728;40;20431;-82
2021/07/27 05:08:42;;;;;;;34.00;21.65;;;;;;;;;;1486088;39;20553;-82
2021/07/27 05:09:44;;;;;;;25.75;22.08;;;;;;;;;;1489816;39;20412;-82
2021/07/27 05:10:45;;;;;;;29.08;22.30;;;;;;;;;;1486108;40;20458;-82
2021/07/27 05:11:47;;;;;;;25.38;21.23;;;;;;;;;;1481354;40;20403;-82
2021/07/27 05:12:49;;;;;;;29.38;21.98;;;;;;;;;;1477212;40;20413;-83
2021/07/27 05:13:53;;;;;;;29.35;22.05;;;;;;;;;;1481472;40;20413;-82
2021/07/27 05:14:55;;;;;;;27.88;21.23;;;;;;;;;;1481686;40;20401;-82
2021/07/27 05:16:02;;;;;;;29.42;22.23;;;;;;;;;;1474120;40;20527;-82
2021/07/27 05:17:10;;;;;;;24.63;20.97;;;;;;;;;;1482640;39;20471;-83
2021/07/27 05:18:15;;;;;;;24.35;20.13;;;;;;;;;;1485549;40;20398;-82
2021/07/27 05:19:16;;;;;;;27.60;21.77;;;;;;;;;;1481840;40;20549;-83
2021/07/27 05:20:18;;;;;;;27.77;20.88;;;;;;;;;;1486098;39;20460;-82
2021/07/27 05:21:20;;;;;;;28.88;21.58;;;;;;;;;;1485932;40;20406;-82
2021/07/27 05:22:23;;;;;;;30.45;21.05;;;;;;;;;;1485891;39;20791;-82
2021/07/27 05:23:25;;;;;;;23.05;19.88;;;;;;;;;;1485247;40;20434;-82
2021/07/27 05:24:26;;;;;;;26.10;20.98;;;;;;;;;;1485811;39;20684;-82
2021/07/27 05:25:28;;;;;;;27.27;19.70;;;;;;;;;;1481704;40;21188;-82
2021/07/27 05:26:29;;;;;;;28.05;19.58;;;;;;;;;;1482100;39;20542;-82
2021/07/27 05:27:33;;;;;;;27.77;20.88;;;;;;;;;;1490181;39;20397;-82
2021/07/27 05:28:35;;;;;;;23.02;20.13;;;;;;;;;;1485924;40;21106;-82
2021/07/27 05:29:37;;;;;;;25.98;21.15;;;;;;;;;;1489047;39;20426;-82
2021/07/27 05:30:38;;;;;;;23.60;19.25;;;;;;;;;;1489971;40;20414;-82
2021/07/27 05:31:40;;;;;;;25.80;19.95;;;;;;;;;;1490077;39;20405;-82
2021/07/27 05:32:43;;;;;;;28.98;21.73;;;;;;;;;;1495307;39;20471;-83
2021/07/27 05:33:44;;;;;;;26.90;20.38;;;;;;;;;;1491304;40;20410;-82
2021/07/27 05:34:46;;;;;;;27.98;20.00;;;;;;;;;;1491107;39;20449;-82
2021/07/27 05:35:49;;;;;;;26.95;20.27;;;;;;;;;;1487767;40;20403;-83
2021/07/27 05:36:51;;;;;;;28.52;20.27;;;;;;;;;;1487795;39;20467;-82
2021/07/27 05:37:52;;;;;;;28.17;20.25;;;;;;;;;;1483541;40;20401;-83
2021/07/27 05:38:54;;;;;;;26.65;19.65;;;;;;;;;;1482680;39;20798;-82
2021/07/27 05:39:56;;;;;;;27.92;20.70;;;;;;;;;;1484363;40;20412;-82
2021/07/27 05:40:57;;;;;;;30.15;21.30;;;;;;;;;;1485063;40;20403;-82
2021/07/27 05:41:59;;;;;;;28.48;19.95;;;;;;;;;;1480986;40;20410;-82
2021/07/27 05:43:01;;;;;;;24.85;19.80;;;;;;;;;;1482202;39;20472;-82
2021/07/27 05:44:02;;;;;;;33.00;20.90;;;;;;;;;;1481764;40;20777;-82
2021/07/27 05:45:05;;;;;;;26.85;21.73;;;;;;;;;;1482074;39;20420;-82
2021/07/27 05:46:06;;;;;;;27.15;20.05;;;;;;;;;;1491156;39;20436;-82
2021/07/27 05:47:08;;;;;;;26.58;20.85;;;;;;;;;;1490430;39;20398;-82
2021/07/27 05:48:09;;;;;;;28.77;20.23;;;;;;;;;;1490336;39;20534;-82
2021/07/27 05:49:11;;;;;;;27.30;20.38;;;;;;;;;;1490329;39;21044;-82
2021/07/27 05:50:13;;;;;;;28.67;20.33;;;;;;;;;;1485686;40;20525;-83
2021/07/27 05:51:15;;;;;;;26.30;19.33;;;;;;;;;;1481606;40;20456;-82
2021/07/27 05:52:16;;;;;;;27.55;20.08;;;;;;;;;;1481593;40;20530;-82
2021/07/27 05:53:18;;;;;;;25.85;20.90;;;;;;;;;;1485890;39;20449;-82
2021/07/27 05:54:20;;;;;;;22.63;19.65;;;;;;;;;;1481574;40;20503;-82
2021/07/27 05:55:21;;;;;;;26.35;18.98;;;;;;;;;;1477557;40;20465;-82
2021/07/27 05:56:23;;;;;;;25.75;20.35;;;;;;;;;;1481794;39;20459;-82
2021/07/27 05:57:25;;;;;;;30.92;21.42;;;;;;;;;;1490189;39;20447;-82
2021/07/27 05:58:27;;;;;;;24.83;19.27;;;;;;;;;;1490621;39;20416;-82
2021/07/27 05:59:28;;;;;;;26.00;20.42;;;;;;;;;;1490564;39;20412;-82
2021/07/27 06:00:30;;;;;;;27.88;20.88;;;;;;;;;;1485722;40;20773;-82
2021/07/27 06:01:32;;;;;;;25.90;19.75;;;;;;;;;;1485450;39;20488;-82
2021/07/27 06:02:33;;;;;;;27.45;20.92;;;;;;;;;;1490388;39;20425;-82
2021/07/27 06:03:35;;;;;;;24.05;20.08;;;;;;;;;;1490215;39;20417;-82
2021/07/27 06:04:37;;;;;;;26.98;19.88;;;;;;;;;;1485540;40;20413;-83
2021/07/27 06:05:39;;;;;;;24.20;20.10;;;;;;;;;;1481569;40;20769;-82
2021/07/27 06:06:41;;;;;;;24.52;20.42;;;;;;;;;;1483864;39;20427;-82
2021/07/27 06:07:43;;;;;;;25.38;19.50;;;;;;;;;;1490581;39;20416;-82
2021/07/27 06:08:44;;;;;;;25.63;18.83;;;;;;;;;;1490418;39;20447;-82
2021/07/27 06:09:46;;;;;;;24.20;19.38;;;;;;;;;;1481860;40;20554;-82
2021/07/27 06:10:47;;;;;;;27.33;19.33;;;;;;;;;;1486380;39;20418;-82
2021/07/27 06:11:49;;;;;;;21.40;18.33;;;;;;;;;;1490206;39;20750;-82
2021/07/27 06:12:50;;;;;;;27.08;17.90;;;;;;;;;;1490386;39;21084;-83
2021/07/27 06:13:52;;;;;;;24.35;18.55;;;;;;;;;;1490557;39;20792;-83
2021/07/27 06:14:54;;;;;;;26.10;17.10;;;;;;;;;;1486312;39;20831;-82
2021/07/27 06:15:55;;;;;;;19.95;15.98;;;;;;;;;;1490052;39;20447;-82
2021/07/27 06:16:57;;;;;;;23.40;16.77;;;;;;;;;;1495445;39;20403;-82
2021/07/27 06:17:59;;;;;;;23.75;16.63;;;;;;;;;;1495202;39;20411;-82
2021/07/27 06:19:01;;;;;;;21.67;16.13;;;;;;;;;;1490374;39;20431;-83
2021/07/27 06:20:03;;;;;;;24.10;17.30;;;;;;;;;;1490667;39;20494;-82
2021/07/27 06:21:04;;;;;;;25.58;17.75;;;;;;;;;;1495493;39;20407;-82
2021/07/27 06:22:06;;;;;;;22.93;15.93;;;;;;;;;;1495141;39;21075;-82
2021/07/27 06:23:13;;;;;;;21.08;15.45;;;;;;;;;;1494693;39;20828;-82